Kaibab Indian Reservation, Arizona
Current Conditions -  °F | °C
As of 7:15 PM on Saturday 22 Nov 2014 (Local Time) from KSGU Reporting Station
Clear Clear  
Wind Chill: 52°   Ceiling: Unl
Heat Index: 52°   Visibility: 10mi
Dew Point: 21°   Wind: 0mph
Humidity: 30%   Direction: NA
Pressure: 29.89"   Gusts: NA
Location:  36.9484°N, 112.529°W
Report Text: KSGU 230215Z AUTO 00000KT 10SM CLR 11/M06 A2989 RMK AO1
Loading
Personal Weather Stations






























Interactive Weather Map New forecast layout! Learn more

10-Day Weather Forecast

Advertisements
Track Severe Weather on mobile